createdAt,value
2024-05-09T00:04:31.871Z,10.70
2024-05-09T00:09:40.199Z,12.13
2024-05-09T00:14:44.915Z,11.80
2024-05-09T00:19:49.632Z,11.00
2024-05-09T00:24:56.757Z,11.27
2024-05-09T00:30:01.241Z,12.57
2024-05-09T00:35:06.299Z,12.70
2024-05-09T00:40:22.464Z,12.98
2024-05-09T00:45:35.124Z,12.15
2024-05-09T00:50:41.695Z,13.30
2024-05-09T00:55:49.951Z,12.73
2024-05-09T01:00:54.801Z,11.25
2024-05-09T01:05:59.571Z,11.63
2024-05-09T01:11:07.807Z,12.02
2024-05-09T01:16:12.360Z,12.15
2024-05-09T01:21:16.801Z,12.20
2024-05-09T01:26:24.094Z,11.02
2024-05-09T01:31:28.636Z,11.20
2024-05-09T01:36:33.327Z,10.88
2024-05-09T01:41:40.397Z,11.52
2024-05-09T01:46:44.850Z,11.82
2024-05-09T01:51:49.238Z,11.98
2024-05-09T01:56:56.783Z,12.40
2024-05-09T02:02:01.454Z,11.40
2024-05-09T02:07:06.155Z,11.52
2024-05-09T02:12:13.687Z,11.48
2024-05-09T02:17:18.732Z,10.93
2024-05-09T02:22:23.512Z,11.55
2024-05-09T02:27:31.096Z,10.73
2024-05-09T02:32:35.614Z,11.55
2024-05-09T02:37:40.554Z,11.45
2024-05-09T02:42:48.122Z,11.40
2024-05-09T02:47:53.398Z,11.32
2024-05-09T02:52:58.044Z,11.13
2024-05-09T02:58:05.458Z,11.88
2024-05-09T03:03:12.507Z,10.52
2024-05-09T03:08:19.060Z,12.13
2024-05-09T03:13:26.660Z,12.95
2024-05-09T03:18:32.884Z,11.63
2024-05-09T03:23:40.046Z,12.63
2024-05-09T03:28:47.677Z,11.63
2024-05-09T03:33:53.756Z,11.43
2024-05-09T03:39:00.384Z,10.90
2024-05-09T03:44:07.917Z,11.55
2024-05-09T03:49:13.684Z,12.20
2024-05-09T03:54:18.915Z,11.70
2024-05-09T03:59:26.443Z,10.90
2024-05-09T04:04:31.013Z,11.27
2024-05-09T04:09:35.772Z,11.73
2024-05-09T04:14:43.175Z,11.52
2024-05-09T04:19:47.469Z,11.77
2024-05-09T04:24:52.883Z,10.65
2024-05-09T04:30:00.685Z,11.93
2024-05-09T04:35:05.079Z,11.32
2024-05-09T04:40:20.506Z,10.27
2024-05-09T04:45:31.490Z,11.45
2024-05-09T04:50:38.860Z,12.10
2024-05-09T04:55:44.621Z,11.80
2024-05-09T05:00:51.842Z,11.82
2024-05-09T05:05:57.336Z,11.70
2024-05-09T05:11:02.176Z,10.52
2024-05-09T05:16:09.835Z,11.10
2024-05-09T05:21:14.909Z,10.40
2024-05-09T05:26:22.073Z,9.63
2024-05-09T05:31:28.998Z,9.95
2024-05-09T05:36:33.349Z,10.48
2024-05-09T05:41:38.022Z,9.40
2024-05-09T05:46:45.442Z,9.70
2024-05-09T05:51:50.126Z,9.60
2024-05-09T05:56:54.643Z,9.43
2024-05-09T06:02:02.070Z,9.38
2024-05-09T06:07:09.121Z,9.90
2024-05-09T06:12:13.943Z,11.35
2024-05-09T06:17:22.872Z,9.50
2024-05-09T06:22:28.101Z,9.70
2024-05-09T06:27:32.510Z,9.52
2024-05-09T06:32:40.148Z,11.52
2024-05-09T06:37:45.275Z,9.63
2024-05-09T06:42:49.616Z,10.27
2024-05-09T06:47:57.128Z,9.23
2024-05-09T06:53:01.991Z,9.95
2024-05-09T06:58:10.045Z,9.90
2024-05-09T07:03:19.107Z,9.90
2024-05-09T07:08:24.327Z,10.07
2024-05-09T07:13:33.121Z,10.30
2024-05-09T07:18:40.529Z,9.95
2024-05-09T07:23:47.443Z,10.35
2024-05-09T07:28:52.511Z,9.70
2024-05-09T07:34:00.755Z,9.93
2024-05-09T07:39:05.668Z,10.40
2024-05-09T07:44:10.009Z,11.10
2024-05-09T07:50:56.103Z,9.40
2024-05-09T07:54:41.537Z,10.45
2024-05-09T07:59:46.878Z,10.77
2024-05-09T08:04:55.604Z,10.02
2024-05-09T08:10:00.312Z,10.05
2024-05-09T08:15:05.001Z,10.20
2024-05-09T08:20:15.928Z,10.90
2024-05-09T08:25:24.117Z,10.27
2024-05-09T08:30:34.108Z,9.55
2024-05-09T08:35:45.376Z,9.82
2024-05-09T08:40:50.723Z,10.20
2024-05-09T08:45:55.658Z,9.73
2024-05-09T08:51:03.305Z,9.88
2024-05-09T08:56:09.732Z,8.82
2024-05-09T09:01:15.433Z,9.75
2024-05-09T09:06:24.491Z,8.73
2024-05-09T09:11:30.204Z,8.38
2024-05-09T09:16:35.910Z,8.32
2024-05-09T09:21:43.026Z,8.40
2024-05-09T09:26:47.725Z,7.15
2024-05-09T09:32:00.665Z,6.47
2024-05-09T09:37:09.035Z,6.80
2024-05-09T09:42:14.328Z,6.25
2024-05-09T09:47:20.378Z,6.38
2024-05-09T09:52:27.738Z,7.00
2024-05-09T09:57:35.770Z,8.38
2024-05-09T10:02:41.265Z,7.50
2024-05-09T10:07:49.141Z,8.20
2024-05-09T10:13:00.610Z,7.13
2024-05-09T10:18:09.015Z,6.53
2024-05-09T10:23:32.576Z,5.55
2024-05-09T10:28:37.718Z,5.60
2024-05-09T10:33:42.913Z,5.93
2024-05-09T10:38:52.164Z,5.75
2024-05-09T10:43:56.549Z,5.28
2024-05-09T10:49:06.226Z,5.70
2024-05-09T10:54:15.446Z,5.38
2024-05-09T10:59:21.345Z,5.60
2024-05-09T11:04:26.192Z,5.80
2024-05-09T11:09:34.806Z,5.25
2024-05-09T11:14:39.772Z,5.88
2024-05-09T11:19:46.620Z,5.45
2024-05-09T11:24:54.952Z,5.90
2024-05-09T11:30:00.297Z,5.38
2024-05-09T11:35:05.152Z,5.63
2024-05-09T11:40:21.189Z,6.10
2024-05-09T11:45:32.279Z,5.45
2024-05-09T11:50:37.443Z,6.32
2024-05-09T11:55:44.918Z,4.78
2024-05-09T12:00:49.568Z,5.13
2024-05-09T12:05:54.449Z,4.80
2024-05-09T12:11:01.791Z,5.25
2024-05-09T12:16:07.141Z,4.47
2024-05-09T12:21:11.950Z,5.25
2024-05-09T12:26:19.759Z,4.45
2024-05-09T12:31:24.420Z,4.50
2024-05-09T12:36:29.446Z,3.97
2024-05-09T12:41:37.312Z,5.22
2024-05-09T12:46:41.923Z,5.13
2024-05-09T12:51:50.277Z,4.90
2024-05-09T12:56:57.451Z,5.50
2024-05-09T13:02:04.398Z,5.03
2024-05-09T13:07:15.679Z,5.40
2024-05-09T13:12:24.327Z,5.10
2024-05-09T13:17:29.366Z,4.90
2024-05-09T13:22:33.830Z,6.07
2024-05-09T13:27:42.503Z,5.30
2024-05-09T13:32:47.405Z,5.78
2024-05-09T13:37:52.472Z,7.28
2024-05-09T13:43:00.044Z,5.15
2024-05-09T13:48:06.663Z,5.55
2024-05-09T13:53:12.416Z,5.47
2024-05-09T13:58:19.965Z,4.57
2024-05-09T14:03:25.123Z,4.90
2024-05-09T14:08:29.787Z,4.30
2024-05-09T14:13:39.566Z,3.75
2024-05-09T14:18:44.264Z,4.20
2024-05-09T14:23:50.517Z,3.92
2024-05-09T14:28:57.972Z,3.60
2024-05-09T14:34:02.802Z,3.85
2024-05-09T14:39:07.561Z,3.97
2024-05-09T14:44:14.954Z,3.90
2024-05-09T14:49:20.260Z,4.15
2024-05-09T14:54:25.253Z,3.83
2024-05-09T14:59:32.438Z,3.55
2024-05-09T15:04:37.443Z,4.22
2024-05-09T15:09:50.290Z,4.32
2024-05-09T15:14:57.522Z,3.75
2024-05-09T15:20:07.348Z,3.65
2024-05-09T15:25:13.642Z,3.40
2024-05-09T15:35:32.183Z,3.70
2024-05-09T15:40:40.037Z,3.60
2024-05-09T15:45:48.284Z,3.90
2024-05-09T15:50:53.151Z,4.18
2024-05-09T15:55:58.139Z,3.40
2024-05-09T16:01:05.742Z,3.33
2024-05-09T16:06:10.521Z,3.92
2024-05-09T16:11:17.426Z,3.35
2024-05-09T16:16:24.820Z,3.50
2024-05-09T16:21:29.378Z,3.72
2024-05-09T16:26:33.840Z,3.95
2024-05-09T16:31:40.997Z,3.33
2024-05-09T16:36:45.651Z,3.10
2024-05-09T16:41:50.787Z,3.08
2024-05-09T16:46:58.370Z,3.70
2024-05-09T16:52:03.533Z,3.33
2024-05-09T16:57:08.685Z,3.55
2024-05-09T17:02:16.216Z,3.58
2024-05-09T17:07:21.166Z,3.78
2024-05-09T17:12:26.987Z,3.90
2024-05-09T17:17:34.382Z,3.97
2024-05-09T17:22:39.047Z,4.05
2024-05-09T17:27:43.949Z,4.10
2024-05-09T17:32:51.501Z,4.35
2024-05-09T17:37:55.978Z,4.72
2024-05-09T17:43:00.991Z,3.95
2024-05-09T17:48:10.596Z,3.35
2024-05-09T17:53:16.047Z,3.45
2024-05-09T17:58:20.618Z,3.58
2024-05-09T18:03:28.120Z,3.35
2024-05-09T18:08:32.657Z,3.38
2024-05-09T18:13:37.060Z,3.90
2024-05-09T18:18:44.775Z,4.10
2024-05-09T18:23:52.114Z,4.05
2024-05-09T18:28:56.934Z,4.43
2024-05-09T18:34:16.518Z,4.18
2024-05-09T18:39:44.338Z,3.90
2024-05-09T18:50:54.094Z,4.53
2024-05-09T18:56:01.497Z,4.53
2024-05-09T19:01:06.389Z,4.03
2024-05-09T19:06:11.197Z,4.25
2024-05-09T19:11:18.373Z,4.85
2024-05-09T19:16:23.074Z,4.65
2024-05-09T19:21:27.756Z,4.60
2024-05-09T19:26:35.195Z,4.30
2024-05-09T19:31:40.475Z,4.45
2024-05-09T19:36:45.786Z,4.63
2024-05-09T19:41:54.378Z,4.70
2024-05-09T19:46:59.397Z,4.88
2024-05-09T19:52:03.929Z,7.72
2024-05-09T19:57:11.175Z,5.28
2024-05-09T20:02:17.620Z,5.57
2024-05-09T20:07:22.479Z,5.40
2024-05-09T20:12:30.096Z,5.00
2024-05-09T20:17:34.936Z,7.07
2024-05-09T20:22:40.269Z,7.45
2024-05-09T20:27:48.270Z,6.30
2024-05-09T20:32:58.509Z,6.50
2024-05-09T20:38:04.282Z,12.55
2024-05-09T20:43:12.436Z,6.00
2024-05-09T20:48:17.533Z,5.68
2024-05-09T20:53:22.881Z,6.07
2024-05-09T20:58:30.854Z,9.65
2024-05-09T21:03:38.500Z,7.28
2024-05-09T21:08:43.578Z,6.72
2024-05-09T21:13:50.787Z,5.97
2024-05-09T21:18:55.576Z,5.97
2024-05-09T21:24:00.256Z,6.50
2024-05-09T21:29:07.368Z,6.40
2024-05-09T21:34:12.144Z,6.63
2024-05-09T21:39:16.961Z,6.10
2024-05-09T21:44:24.455Z,6.35
2024-05-09T21:49:29.517Z,6.45
2024-05-09T21:54:34.394Z,7.05
2024-05-09T21:59:42.126Z,6.88
2024-05-09T22:04:47.022Z,6.97
2024-05-09T22:09:51.706Z,7.53
2024-05-09T22:14:59.143Z,6.90
2024-05-09T22:20:11.973Z,7.18
2024-05-09T22:25:25.354Z,6.95
2024-05-09T22:30:38.208Z,7.45
2024-05-09T22:35:44.969Z,7.20
2024-05-09T22:40:50.308Z,6.82
2024-05-09T22:45:57.723Z,7.63
2024-05-09T22:51:02.497Z,7.78
2024-05-09T22:56:07.281Z,7.20
2024-05-09T23:01:19.771Z,7.25
2024-05-09T23:06:24.211Z,7.15
2024-05-09T23:11:28.776Z,7.03
2024-05-09T23:16:36.138Z,6.93
2024-05-09T23:21:42.770Z,7.40
2024-05-09T23:26:47.194Z,6.43
2024-05-09T23:31:54.468Z,7.05
2024-05-09T23:36:59.170Z,7.45
2024-05-09T23:42:03.730Z,6.75
2024-05-09T23:47:11.293Z,7.65
2024-05-09T23:52:16.089Z,7.68
2024-05-09T23:57:20.894Z,7.32
